aviador You're here:

KEKX Decoded Metar

ELIZABETH in KY, USA
Report Time2017-11-24 01:55:00
UTC Time2017-11-24 02:00:16
Flight Rules vfr VFR
WindCalm
Visibility9999 m
Phenomena:N/A
Clouds:N/A
Expected CloudBase > 2,400 ft AGL from Temp-Dew spread
CeilingNone
Temp02°C (ISA -12)
Dew Point-4°C (65% RH)
AAT-0.5°C
QNH1017 hPa
Density Alt-712 ft
Elevation755 ft
Report Wrong Elevation
Raw Report
METAR KEKX 240155Z AUTO 00000KT 10SM CLR 02/M04 A3003 RMK AO2
T00201038=

Extra information for KEKX:More info

Airport Information Weather charts Add Link Nearby Venues Social comments

AIRNAV info for KEKX